Latest Weather Observations for Bombala AWS

IDN60801

Issued at 4:05 pm EST Thursday 21 August 2014 (issued every 30 minutes, with the page automatically refreshed every 10 minutes)

About weather observations | Map of weather stations | Latest weather observations for NSW | Other Formats
Station Details ID: 070328 Name: BOMBALA AWS Lat: -37.00 Lon: 149.23 Height: 760.5 m
Data from the previous 72 hours. | See also: Recent months at Bombala AWS
Date/Time
EST
Temp
°C
App
Temp
°C
Dew
Point
Rel
Hum
%
Delta-T
°C
Wind Press
QNH
hPa
Press
MSL
hPa
Rain
since 9 am
mm
Dir
 
Spd
km/h
Gust
km/h
Spd
kts
Gust
kts
21/04:00pm 8.5 6.6 6.6 88 0.9 E 6 9 3 5 1029.5 1030.6 0.0
21/03:30pm 8.7 6.4 7.6 93 0.5 E 9 13 5 7 1029.2 - 0.0
21/03:00pm 8.1 6.2 7.7 97 0.2 ESE 7 11 4 6 1029.2 1030.4 0.0
21/02:30pm 9.2 6.5 7.5 89 0.8 SSE 11 17 6 9 1029.1 - 0.0
21/02:00pm 8.9 6.4 6.5 85 1.2 S 9 13 5 7 1029.2 1030.4 0.0
21/01:30pm 8.6 6.4 6.1 84 1.2 ESE 7 11 4 6 1029.3 - 0.0
21/01:00pm 9.2 7.7 5.2 76 1.9 SSE 2 6 1 3 1029.6 1030.7 0.0
21/12:30pm 8.5 7.0 5.1 79 1.6 ENE 2 4 1 2 1029.9 - 0.0
21/12:00pm 8.6 7.1 4.8 77 1.8 ENE 2 4 1 2 1030.2 1031.3 0.0
21/11:30am 8.8 7.3 5.2 78 1.7 S 2 6 1 3 1030.5 - 0.0
21/11:00am 8.3 6.3 4.5 77 1.7 WNW 4 6 2 3 1030.7 1031.9 0.0
21/10:30am 8.3 7.5 6.6 89 0.8 CALM 0 0 0 0 1031.0 - 0.0
21/10:00am 5.4 3.2 5.3 99 0.0 NNW 6 7 3 4 1031.0 1032.1 0.0
21/09:30am 3.7 1.2 3.7 100 0.0 NNW 6 7 3 4 1031.0 - 0.0
21/09:00am 2.2 -0.6 2.2 100 0.0 NNW 6 9 3 5 1030.9 1032.0 0.2
21/08:30am 1.4 -1.1 1.4 100 0.0 NNW 4 7 2 4 1030.9 - 0.2
21/08:00am 0.6 -1.7 0.5 99 0.0 N 2 6 1 3 1030.5 1031.7 0.2
21/07:30am 0.0 -3.1 -0.1 99 0.0 NNE 6 7 3 4 1030.3 - 0.0
21/07:00am -0.5 -3.9 -0.6 99 0.0 NW 7 9 4 5 1029.8 1030.9 0.0
21/06:30am -1.2 -4.5 -1.3 99 0.0 NW 6 7 3 4 1029.7 - 0.0
21/06:00am -2.2 -4.9 -2.3 99 -0.1 SE 2 6 1 3 1029.3 1030.5 0.0
21/05:30am -2.0 -4.3 -2.1 99 -0.1 CALM 0 0 0 0 1029.1 - 0.0
21/05:00am -1.8 -4.0 -1.9 99 0.0 CALM 0 0 0 0 1028.8 1029.9 0.0
21/04:30am -1.7 -3.9 -1.8 99 0.0 CALM 0 0 0 0 1028.7 - 0.0
21/04:00am -1.8 -4.0 -1.9 99 0.0 CALM 0 0 0 0 1028.7 1029.8 0.0
21/03:30am -1.8 -4.0 -1.9 99 0.0 CALM 0 0 0 0 1028.5 - 0.0
21/03:00am -1.8 -4.0 -1.9 99 0.0 CALM 0 0 0 0 1028.4 1029.5 0.0
21/02:30am -1.7 -4.3 -1.8 99 0.0 SE 2 4 1 2 1028.3 - 0.0
21/02:00am -1.7 -4.7 -1.8 99 0.0 SE 4 6 2 3 1028.3 1029.4 0.0
21/01:30am -1.5 -4.1 -1.6 99 0.0 SE 2 4 1 2 1028.4 - 0.0
21/01:00am -0.7 -3.9 -0.8 99 0.0 SE 6 6 3 3 1028.3 1029.4 0.0
21/12:30am -0.3 -2.7 -0.4 99 0.0 S 2 4 1 2 1028.3 - 0.0
21/12:00am 1.1 -1.1 1.0 99 0.0 S 2 4 1 2 1028.3 1029.4 0.0
 
Date/Time
EST
Temp
°C
App
Temp
°C
Dew
Point
Rel
Hum
%
Delta-T
°C
Wind Press
QNH
hPa
Press
MSL
hPa
Rain
since 9 am
mm
Dir
 
Spd
km/h
Gust
km/h
Spd
kts
Gust
kts
20/11:30pm 1.8 0.1 1.7 99 0.0 CALM 0 0 0 0 1028.4 - 0.0
20/11:00pm 1.9 0.2 1.8 99 0.0 CALM 0 2 0 1 1028.3 1029.4 0.0
20/10:30pm 1.8 -1.1 1.7 99 0.0 SSW 6 6 3 3 1028.4 - 0.0
20/10:00pm 3.1 0.5 3.0 99 0.0 S 6 7 3 4 1028.4 1029.5 0.0
20/09:30pm 3.9 0.8 3.8 99 0.0 SSE 9 13 5 7 1028.3 - 0.0
20/09:00pm 3.3 0.7 3.2 99 0.0 SSE 6 9 3 5 1028.2 1029.3 0.0
20/08:30pm 3.7 0.2 3.6 99 0.0 SSE 11 13 6 7 1027.9 - 0.0
20/08:00pm 4.1 0.6 3.5 96 0.3 SSE 11 11 6 6 1027.7 1028.8 0.0
20/07:30pm 4.1 1.8 2.9 92 0.5 ESE 4 6 2 3 1027.5 - 0.0
20/07:00pm 4.2 1.6 3.0 92 0.5 SSE 6 6 3 3 1027.2 1028.3 0.0
20/06:30pm 3.8 0.9 2.6 92 0.5 SSE 7 7 4 4 1026.8 - 0.0
20/06:00pm 4.0 1.1 2.4 89 0.7 SE 7 9 4 5 1026.3 1027.4 0.0
20/05:30pm 5.3 1.3 3.0 85 1.0 SE 13 17 7 9 1026.0 - 0.0
20/05:00pm 6.5 1.4 3.1 79 1.5 SSE 19 22 10 12 1025.7 1026.7 0.0
20/04:30pm 7.6 2.6 3.6 76 1.8 SSE 19 22 10 12 1025.3 - 0.0
20/04:00pm 8.1 3.4 3.0 70 2.3 SE 17 20 9 11 1025.0 1026.1 0.0
20/03:30pm 8.6 4.4 3.6 71 2.3 SSE 15 20 8 11 1024.9 - 0.0
20/03:00pm 8.8 4.9 3.4 69 2.4 SE 13 17 7 9 1024.7 1025.8 0.0
20/02:30pm 8.9 5.4 3.3 68 2.5 SSE 11 17 6 9 1024.6 - 0.0
20/02:00pm 8.6 5.3 2.6 66 2.6 SE 9 19 5 10 1024.5 1025.5 0.0
20/01:30pm 8.4 5.5 2.4 66 2.6 SE 7 15 4 8 1024.5 - 0.0
20/01:00pm 8.8 6.5 2.8 66 2.7 SSW 4 11 2 6 1024.7 1025.8 0.0
20/12:30pm 8.6 5.8 2.2 64 2.8 SW 6 9 3 5 1024.9 - 0.0
20/12:00pm 8.4 5.7 2.8 68 2.5 W 6 11 3 6 1025.4 1026.4 0.0
20/11:30am 7.4 4.9 1.7 67 2.4 W 4 7 2 4 1025.6 - 0.0
20/11:00am 7.1 4.3 2.0 70 2.2 S 6 11 3 6 1025.8 1026.8 0.0
20/10:30am 5.8 2.2 0.6 69 2.1 WSW 9 15 5 8 1026.0 - 0.0
20/10:00am 6.1 3.0 1.1 70 2.1 S 7 13 4 7 1025.7 1026.7 0.0
20/09:30am 5.8 2.3 1.0 71 2.0 W 9 13 5 7 1025.6 - 0.0
20/09:00am 5.3 1.5 1.6 77 1.5 W 11 15 6 8 1025.5 1026.5 0.2
20/08:30am 4.7 0.5 1.6 80 1.3 W 13 17 7 9 1025.3 - 0.2
20/08:00am 4.1 -0.5 1.3 82 1.1 W 15 20 8 11 1025.1 1026.2 0.2
20/07:30am 3.6 -1.1 0.8 82 1.1 WNW 15 17 8 9 1024.8 - 0.2
20/07:00am 3.3 -1.4 1.0 85 0.9 WNW 15 19 8 10 1024.6 1025.6 0.2
20/06:30am 3.3 -1.0 0.9 84 1.0 WNW 13 15 7 8 1024.3 - 0.2
20/06:00am 3.3 -1.5 0.4 81 1.1 WNW 15 17 8 9 1024.1 1025.1 0.2
20/05:30am 3.4 -1.0 0.5 81 1.2 W 13 17 7 9 1024.4 - 0.2
20/05:00am 3.5 -0.6 0.0 78 1.4 W 11 15 6 8 1024.2 1025.2 0.2
20/04:30am 3.5 -0.1 0.4 80 1.2 SW 9 13 5 7 1024.1 - 0.2
20/04:00am 3.5 -0.2 0.0 78 1.4 SW 9 17 5 9 1024.0 1025.0 0.2
20/03:30am 3.5 -1.0 -0.3 76 1.5 SSW 13 19 7 10 1023.6 - 0.2
20/03:00am 3.5 -0.1 0.6 81 1.2 WSW 9 15 5 8 1023.5 1024.5 0.2
20/02:30am 3.8 -0.2 0.5 79 1.3 SSW 11 15 6 8 1023.5 - 0.2
20/02:00am 4.0 -0.4 0.3 77 1.5 WSW 13 17 7 9 1023.7 1024.8 0.2
20/01:30am 4.0 0.1 1.2 82 1.1 WSW 11 13 6 7 1023.6 - 0.2
20/01:00am 4.2 0.8 1.6 83 1.1 WSW 9 13 5 7 1023.7 1024.8 0.2
20/12:30am 4.3 0.8 1.5 82 1.2 WSW 9 13 5 7 1023.7 - 0.2
20/12:00am 4.3 0.9 1.7 83 1.1 WSW 9 13 5 7 1023.9 1024.9 0.2
 
Date/Time
EST
Temp
°C
App
Temp
°C
Dew
Point
Rel
Hum
%
Delta-T
°C
Wind Press
QNH
hPa
Press
MSL
hPa
Rain
since 9 am
mm
Dir
 
Spd
km/h
Gust
km/h
Spd
kts
Gust
kts
19/11:30pm 4.6 0.8 1.5 80 1.3 WSW 11 17 6 9 1023.7 - 0.2
19/11:00pm 4.4 1.4 1.9 84 1.0 WSW 7 11 4 6 1023.9 1024.9 0.2
19/10:30pm 4.3 0.5 2.0 85 1.0 SW 11 13 6 7 1023.7 - 0.2
19/10:00pm 4.3 0.1 1.8 84 1.0 SW 13 17 7 9 1023.6 1024.7 0.2
19/09:30pm 4.2 0.5 2.2 87 0.8 SSW 11 15 6 8 1023.6 - 0.2
19/09:00pm 4.4 0.4 2.8 89 0.7 SW 13 15 7 8 1023.6 1024.7 0.2
19/08:30pm 4.8 0.4 2.8 87 0.9 SW 15 19 8 10 1023.5 - 0.2
19/08:00pm 5.4 0.7 3.1 85 1.0 SSW 17 22 9 12 1023.3 1024.3 0.2
19/07:30pm 5.0 1.6 3.8 92 0.5 S 11 17 6 9 1023.0 - 0.2
19/07:00pm 5.3 0.7 3.8 90 0.7 S 17 20 9 11 1022.7 1023.7 0.2
19/06:30pm 5.6 2.5 3.6 87 0.9 SW 9 17 5 9 1022.5 - 0.2
19/06:00pm 6.2 2.3 3.4 82 1.2 SW 13 19 7 10 1022.2 1023.2 0.2
19/05:30pm 6.6 2.5 4.3 85 1.0 SSW 15 24 8 13 1021.9 - 0.2
19/05:00pm 6.8 2.4 4.8 87 0.9 S 17 22 9 12 1021.7 1022.7 0.2
19/04:30pm 7.4 2.3 4.2 80 1.5 SSW 20 30 11 16 1021.4 - 0.2
19/04:00pm 8.4 3.1 4.8 78 1.7 SSW 22 32 12 17 1021.1 1022.0 0.2
19/03:30pm 7.6 1.8 4.4 80 1.5 SSW 24 33 13 18 1021.1 - 0.2
19/03:00pm 7.9 2.9 4.5 79 1.6 SSW 20 30 11 16 1021.0 1021.9 0.2
19/02:30pm 7.9 2.5 4.5 79 1.6 S 22 32 12 17 1020.8 - 0.2
19/02:00pm 7.8 1.7 4.6 80 1.5 SSW 26 33 14 18 1020.5 1021.5 0.2
19/01:30pm 8.2 3.0 5.7 84 1.2 SSW 22 35 12 19 1020.6 - 0.2
19/01:00pm 8.2 2.2 5.5 83 1.3 S 26 37 14 20 1020.5 1021.5 0.2
19/12:30pm 8.4 3.7 6.0 85 1.1 SSW 20 32 11 17 1020.5 - 0.2
19/12:00pm 8.2 1.5 5.7 84 1.2 S 30 39 16 21 1020.7 1021.7 0.2
19/11:30am 8.8 2.7 6.4 85 1.2 S 28 39 15 21 1020.8 - 0.2
19/11:00am 8.1 1.7 7.0 93 0.5 S 30 39 16 21 1021.0 1021.9 0.2
19/10:30am 7.7 2.8 7.1 96 0.3 S 22 32 12 17 1021.0 - 0.2
19/10:00am 7.8 3.5 7.7 99 0.0 S 20 28 11 15 1021.0 1021.9 0.2
19/09:30am 7.5 3.3 7.4 99 0.0 S 19 24 10 13 1021.0 - 0.2
19/09:00am 7.4 3.0 7.3 99 0.0 S 20 28 11 15 1020.6 1021.6 12.8
19/08:30am 7.5 2.3 7.4 99 0.0 S 24 33 13 18 1020.4 - 12.8
19/08:00am 7.3 2.1 7.2 99 0.0 SSE 24 35 13 19 1020.0 1020.9 12.8
19/07:30am 7.3 2.5 7.2 99 0.0 S 22 30 12 16 1019.8 - 12.8
19/07:00am 7.2 0.8 7.1 99 0.0 SSE 30 39 16 21 1019.2 1020.2 12.8
19/06:30am 7.1 3.2 7.0 99 0.0 S 17 24 9 13 1019.1 - 12.6
19/06:00am 7.1 2.8 7.0 99 0.0 S 19 26 10 14 1018.8 1019.7 12.4
19/05:30am 7.2 2.7 7.1 99 0.0 SSE 20 26 11 14 1018.7 - 12.4
19/05:00am 7.3 2.9 7.2 99 0.0 S 20 26 11 14 1018.5 1019.4 12.4
19/04:30am 7.0 3.1 6.9 99 0.0 S 17 24 9 13 1018.4 - 12.4
19/04:00am 7.0 2.7 6.9 99 0.0 SSE 19 28 10 15 1018.3 1019.2 12.4
19/03:30am 7.4 3.0 7.3 99 0.0 SSE 20 28 11 15 1018.0 - 11.6
19/03:00am 7.3 2.1 7.2 99 0.0 SSE 24 30 13 16 1018.0 1019.0 11.2
19/02:30am 7.4 1.8 7.3 99 0.0 SSE 26 33 14 18 1017.9 - 10.6
19/02:00am 7.4 2.6 7.3 99 0.0 S 22 30 12 16 1018.0 1019.0 10.2
19/01:30am 7.3 3.0 7.2 99 0.0 S 19 26 10 14 1018.2 - 10.0
19/01:00am 7.2 3.7 7.1 99 0.0 S 15 20 8 11 1018.0 1019.0 10.0
19/12:30am 7.2 2.7 7.1 99 0.0 S 20 26 11 14 1017.9 - 10.0
19/12:00am 7.4 3.5 7.3 99 0.0 S 17 26 9 14 1018.0 1019.0 10.0
 
Date/Time
EST
Temp
°C
App
Temp
°C
Dew
Point
Rel
Hum
%
Delta-T
°C
Wind Press
QNH
hPa
Press
MSL
hPa
Rain
since 9 am
mm
Dir
 
Spd
km/h
Gust
km/h
Spd
kts
Gust
kts
18/11:30pm 7.3 2.9 7.2 99 0.0 SSE 20 30 11 16 1017.9 - 10.0
18/11:00pm 7.4 3.5 7.3 99 0.0 S 17 28 9 15 1018.0 1019.0 10.0
18/10:30pm 7.2 2.9 7.1 99 0.0 S 19 28 10 15 1017.8 - 9.6
18/10:00pm 7.5 2.3 7.4 99 0.0 S 24 33 13 18 1017.8 1018.7 9.6
18/09:30pm 7.8 2.3 7.7 99 0.0 S 26 37 14 20 1017.7 - 9.6
18/09:00pm 7.7 2.6 7.6 99 0.0 S 24 32 13 17 1017.4 1018.3 9.4
18/08:30pm 7.7 1.8 7.6 99 0.0 S 28 33 15 18 1017.2 - 9.4
18/08:00pm 7.5 2.3 7.4 99 0.0 SSE 24 33 13 18 1017.1 1018.0 9.2
18/07:30pm 7.8 2.3 7.7 99 0.0 SSE 26 33 14 18 1016.8 - 8.8
18/07:00pm 7.8 1.9 7.7 99 0.0 S 28 35 15 19 1016.4 1017.3 8.6
18/06:30pm 7.8 1.9 7.7 99 0.0 S 28 39 15 21 1016.1 - 8.2
18/06:00pm 7.8 1.6 7.7 99 0.0 SSE 30 41 16 22 1015.9 1016.8 8.2
18/05:30pm 7.2 1.2 7.1 99 0.0 SSE 28 37 15 20 1015.7 - 8.0
18/05:00pm 8.0 2.2 7.9 99 0.0 SSE 28 37 15 20 1015.2 1016.1 6.4
18/04:30pm 8.0 3.0 7.9 99 0.0 SSE 24 33 13 18 1014.8 - 5.0

Other Formats:

Comma delimited format used in spreadsheet applications
http://www.bom.gov.au/fwo/IDN60801/IDN60801.94929.axf

JavaScript Object Notation format (JSON) in row-major order
http://www.bom.gov.au/fwo/IDN60801/IDN60801.94929.json